Nearby METAR Reports

 

CWGT - Sisters Island (Auto)
Distance from station: NE 39km
Updated: 2022-07-07 03:00

 Wind from WSW
Wind: WSW 13 km/h
Temperature: 17°C
Dew Point: 13°C
Humidity: 77%
2022/07/07 10:00 CWGT 071000Z AUTO 24007KT 17/13 RMK AO1 SLP148 T01680133 53002
CWGB - Ballenas Island (Auto)
Distance from station: ENE 47km
Updated: 2022-07-07 03:00

 Wind from SW
Wind: SW 6 km/h
Temperature: 16°C
2022/07/07 10:00 CWGB 071000Z AUTO 22003KT 16/ RMK AO1 SLP141 T0162 53004
CYQQ - CFB Comox
Distance from station: N 55km
Updated: 2022-07-07 03:00
Mostly cloudy
Mostly cloudy
 Wind from calm
Wind: Calm
Temperature: 15°C
Dew Point: 13°C
Humidity: 88%
Barometer: 1014.2 hPa
Clouds: Mostly cloudy
Visibility: 32 km
Cloud details: Few Clouds 579 m
Partly cloudy 1676 m
Mostly cloudy 2896 m
2022/07/07 10:00 CYQQ 071000Z 00000KT 20SM FEW019 SCT055 BKN095 15/13 A2995 RMK SC1SC2AC2 SLP144
 
CYPW - Powell River Airport
Distance from station: NNE 69km
Updated: 2022-07-06 19:00
NOT Current
Mostly cloudy
Mostly cloudy
 Wind from W
Wind: W 7 km/h
Temperature: 18°C
Dew Point: 15°C
Humidity: 83%
Barometer: 1013.9 hPa
Clouds: Mostly cloudy
Visibility: 32 km
Cloud details: Few Clouds 366 m
Few Clouds 2103 m
Mostly cloudy 2591 m
Mostly cloudy 3048 m
2022/07/07 02:00 CYPW 070200Z 27004KT 20SM FEW012 FEW069 BKN085 BKN100 18/15 A2994 RMK CU1AC2AC4AC1 CU TR LAST STFD OBS NEXT OBS 071300 UTC SLP141 DENSITY ALT 900FT
CYCD - Nanaimo Airport
Distance from station: ESE 70km
Updated: 2022-07-06 21:00
NOT Current
Mostly cloudy
Mostly cloudy
 Wind from calm
Wind: Calm
Temperature: 17°C
Dew Point: 17°C
Humidity: 100%
Barometer: 1013.9 hPa
Clouds: Mostly cloudy
Visibility: 24 km
Cloud details: Few Clouds 244 m
Partly cloudy 1067 m
Mostly cloudy 3048 m
2022/07/07 04:00 CYCD 070400Z 00000KT 15SM FEW008 SCT035 BKN100 17/17 A2994 RMK SF1SC2AC4 LAST STFD OBS/NEXT 071300Z SLP140 DENSITY ALT 400FT
CYAZ - Tofino Airport
Distance from station: WSW 73km
Updated: 2022-07-06 18:00
NOT Current
Mostly cloudy
Mostly cloudy
 Wind from WNW
Wind: WNW 15 km/h
Temperature: 16°C
Dew Point: 12°C
Humidity: 77%
Barometer: 1014.6 hPa
Clouds: Mostly cloudy
Visibility: 24 km
Cloud details: Few Clouds 305 m
Mostly cloudy 1097 m
Mostly cloudy 1615 m
2022/07/07 01:00 CYAZ 070100Z 30008KT 15SM FEW010 BKN036 BKN053 16/12 A2996 RMK SC1SC4SC2 LAST STFD OBS/NXT 071300UTC SLP147 DENSITY ALT 300FT
 
CWEL - Entrance Island (Auto)
Distance from station: E 73km
Updated: 2022-07-07 03:00

 Wind from SE
Wind: SE 4 km/h
Temperature: 17°C
Dew Point: 15°C
Humidity: 88%
2022/07/07 10:00 CWEL 071000Z AUTO 14002KT 17/15 RMK AO1 SLP142 T01680147 53004
CYBL - Campbell River Airport
Distance from station: NNW 88km
Updated: 2022-07-06 21:00
NOT Current
Mostly cloudy
Mostly cloudy
 Wind from varies
Wind: varies 4 km/h
Temperature: 16°C
Dew Point: 15°C
Humidity: 94%
Barometer: 1013.9 hPa
Clouds: Mostly cloudy
Visibility: 24 km
Cloud details: Few Clouds 335 m
Mostly cloudy 2134 m
Mostly cloudy 6706 m
2022/07/07 04:00 CYBL 070400Z VRB02KT 15SM FEW011 BKN070 BKN220 16/15 A2994 RMK SC2AC3CI1 LAST STFD OBS/NEXT 071300 UTC SLP143 DENSITY ALT 600FT
CWKH - Malahat Highway (Auto)
Distance from station: SE 116km
Updated: 2022-07-07 03:00

 
Temperature: 13°C
Dew Point: 13°C
Humidity: 100%
2022/07/07 10:00 CWKH 071000Z AUTO 13/13 RMK AO1 4PAST HR M SLP140 P0002 T01250126
 
CYVR - Vancouver Intl Airport
Distance from station: E 118km
Updated: 2022-07-07 03:00
Mostly cloudy
Mostly cloudy
 Wind from varies
Wind: varies 4 km/h
Temperature: 16°C
Dew Point: 16°C
Humidity: 100%
Barometer: 1014.2 hPa
Clouds: Mostly cloudy
Visibility: 32 km
Cloud details: Mostly cloudy 2469 m
Mostly cloudy 3353 m
2022/07/07 10:00 CYVR 071000Z VRB02KT 20SM BKN081 BKN110 16/16 A2995 RMK AC6AC1 SLP146 DENSITY ALT 200FT
CYYJ - Victoria Intl Airport
Distance from station: ESE 120km
Updated: 2022-07-07 03:00
Overcast
Overcast
 Wind from calm
Wind: Calm
Temperature: 15°C
Dew Point: 15°C
Humidity: 100%
Barometer: 1014.6 hPa
Clouds: Overcast
Visibility: 32 km
Cloud details: Mostly cloudy 1737 m
Overcast 2499 m
2022/07/07 10:00 CYYJ 071000Z 00000KT 20SM BKN057 OVC082 15/15 A2996 RMK SC5AC3 SLP146 DENSITY ALT 100FT
CWEB - Estevan Pt. (Auto)
Distance from station: W 129km
Updated: 2022-07-07 03:00

 Wind from N
Wind: N 61 km/h
Temperature: 14°C
2022/07/07 10:00 CWEB 071000Z AUTO 00033KT 14/ RMK AO1 SLP155 T0141 50000
 
CWQK - Race Rocks (Auto)
Distance from station: SE 138km
Updated: 2022-07-07 03:00

 Wind from W
Wind: W 33 km/h
Temperature: 14°C
Dew Point: 12°C
Humidity: 88%
2022/07/07 10:00 CWQK 071000Z AUTO 28018KT 14/12 RMK AO1 PK WND 28024/0926 SLP149 T01420116 53006
CWAE - Whistler
Distance from station: NE 167km
Updated: 2022-07-06 18:00
NOT Current
Overcast
Overcast
 Wind from varies
Wind: varies 4 km/h
Temperature: 18°C
Dew Point: 10°C
Humidity: 60%
Barometer: 1014.6 hPa
Clouds: Overcast
Visibility: 24 km
Cloud details: Few Clouds 1250 m
Overcast 2012 m
2022/07/07 01:00 CWAE 070100Z VRB02KT 15SM FEW041 OVC066 18/10 A2996 RMK CU1AC7 LASTOBS/NEXT071300UTC WIND ESTD SLP143 DENSITY ALT 3000FT
CYZT - Port Hardy Airport
Distance from station: NW 244km
Updated: 2022-07-07 03:00
Light rain, Showers, Overcast
Light rain, Showers, Overcast
 Wind from WSW
Wind: WSW 4 km/h
Temperature: 14°C
Dew Point: 13°C
Humidity: 94%
Barometer: 1015.2 hPa
Summary: Light rain, Showers
Clouds: Overcast
Visibility: 19 km
Cloud details: Overcast 579 m
2022/07/07 10:00 CYZT 071000Z 25002KT 12SM -SHRA OVC019 14/13 A2998 RMK SC8 CVCTV CLD EMBD SLP156
 
CWRU - Solander Isl (Auto)
Distance from station: WNW 247km
Updated: 2022-07-07 03:00

 Wind from NW
Wind: NW 17 km/h
Temperature: 12°C
2022/07/07 10:00 CWRU 071000Z AUTO 31009KT 12/ RMK AO1 T0115 52002